sensor_id;sensor_type;location;lat;lon;timestamp;P1;durP1;ratioP1;P2;durP2;ratioP2
29484;SDS011;16440;59.494;17.978;2022-09-01T00:00:13;1.20;;;1.00;;
29484;SDS011;16440;59.494;17.978;2022-09-01T00:02:46;1.80;;;1.35;;
29484;SDS011;16440;59.494;17.978;2022-09-01T00:05:24;1.62;;;1.15;;
29484;SDS011;16440;59.494;17.978;2022-09-01T00:10:26;2.60;;;1.00;;
29484;SDS011;16440;59.494;17.978;2022-09-01T00:15:38;5.03;;;1.30;;
29484;SDS011;16440;59.494;17.978;2022-09-01T00:18:18;3.47;;;1.30;;
29484;SDS011;16440;59.494;17.978;2022-09-01T00:20:50;2.60;;;1.33;;
29484;SDS011;16440;59.494;17.978;2022-09-01T00:23:23;2.67;;;1.20;;
29484;SDS011;16440;59.494;17.978;2022-09-01T00:25:54;3.83;;;1.20;;
29484;SDS011;16440;59.494;17.978;2022-09-01T00:28:27;1.83;;;1.12;;
29484;SDS011;16440;59.494;17.978;2022-09-01T00:30:58;3.87;;;1.40;;
29484;SDS011;16440;59.494;17.978;2022-09-01T00:33:29;3.85;;;1.33;;
29484;SDS011;16440;59.494;17.978;2022-09-01T00:36:06;4.87;;;1.50;;
29484;SDS011;16440;59.494;17.978;2022-09-01T00:38:46;4.03;;;1.40;;
29484;SDS011;16440;59.494;17.978;2022-09-01T00:41:21;2.50;;;1.17;;
29484;SDS011;16440;59.494;17.978;2022-09-01T00:46:31;1.67;;;1.30;;
29484;SDS011;16440;59.494;17.978;2022-09-01T00:49:06;4.50;;;1.65;;
29484;SDS011;16440;59.494;17.978;2022-09-01T00:51:53;3.30;;;1.02;;
29484;SDS011;16440;59.494;17.978;2022-09-01T00:54:28;3.17;;;1.30;;
29484;SDS011;16440;59.494;17.978;2022-09-01T00:59:32;2.85;;;1.20;;
29484;SDS011;16440;59.494;17.978;2022-09-01T01:07:11;2.35;;;1.30;;
29484;SDS011;16440;59.494;17.978;2022-09-01T01:09:46;3.62;;;1.17;;
29484;SDS011;16440;59.494;17.978;2022-09-01T01:12:20;2.95;;;1.30;;
29484;SDS011;16440;59.494;17.978;2022-09-01T01:17:24;5.85;;;1.30;;
29484;SDS011;16440;59.494;17.978;2022-09-01T01:20:03;2.95;;;1.20;;
29484;SDS011;16440;59.494;17.978;2022-09-01T01:25:26;3.40;;;1.35;;
29484;SDS011;16440;59.494;17.978;2022-09-01T01:30:39;2.20;;;1.30;;
29484;SDS011;16440;59.494;17.978;2022-09-01T01:33:22;2.15;;;1.20;;
29484;SDS011;16440;59.494;17.978;2022-09-01T01:35:53;5.50;;;1.50;;
29484;SDS011;16440;59.494;17.978;2022-09-01T01:38:31;6.82;;;1.70;;
29484;SDS011;16440;59.494;17.978;2022-09-01T01:41:06;2.83;;;1.50;;
29484;SDS011;16440;59.494;17.978;2022-09-01T01:43:38;1.65;;;1.40;;
29484;SDS011;16440;59.494;17.978;2022-09-01T01:46:19;2.70;;;1.60;;
29484;SDS011;16440;59.494;17.978;2022-09-01T01:48:52;4.28;;;1.52;;
29484;SDS011;16440;59.494;17.978;2022-09-01T01:51:23;5.05;;;1.62;;
29484;SDS011;16440;59.494;17.978;2022-09-01T01:53:55;3.95;;;1.48;;
29484;SDS011;16440;59.494;17.978;2022-09-01T01:56:25;1.73;;;1.20;;
29484;SDS011;16440;59.494;17.978;2022-09-01T01:59:13;2.30;;;1.30;;
29484;SDS011;16440;59.494;17.978;2022-09-01T02:01:50;2.58;;;1.35;;
29484;SDS011;16440;59.494;17.978;2022-09-01T02:04:21;2.40;;;1.40;;
29484;SDS011;16440;59.494;17.978;2022-09-01T02:09:31;3.45;;;1.33;;
29484;SDS011;16440;59.494;17.978;2022-09-01T02:14:31;1.83;;;1.20;;
29484;SDS011;16440;59.494;17.978;2022-09-01T02:17:08;4.35;;;1.80;;
29484;SDS011;16440;59.494;17.978;2022-09-01T02:19:44;3.08;;;1.30;;
29484;SDS011;16440;59.494;17.978;2022-09-01T02:22:18;1.85;;;1.25;;
29484;SDS011;16440;59.494;17.978;2022-09-01T02:24:48;5.30;;;1.17;;
29484;SDS011;16440;59.494;17.978;2022-09-01T02:27:25;2.12;;;1.20;;
29484;SDS011;16440;59.494;17.978;2022-09-01T02:29:56;3.50;;;1.58;;
29484;SDS011;16440;59.494;17.978;2022-09-01T02:32:25;2.40;;;1.12;;
29484;SDS011;16440;59.494;17.978;2022-09-01T02:37:38;2.65;;;1.40;;
29484;SDS011;16440;59.494;17.978;2022-09-01T02:40:26;2.22;;;1.27;;
29484;SDS011;16440;59.494;17.978;2022-09-01T02:43:19;2.87;;;1.10;;
29484;SDS011;16440;59.494;17.978;2022-09-01T02:53:23;1.50;;;1.20;;
29484;SDS011;16440;59.494;17.978;2022-09-01T02:58:24;1.20;;;1.10;;
29484;SDS011;16440;59.494;17.978;2022-09-01T03:00:56;1.42;;;1.17;;
29484;SDS011;16440;59.494;17.978;2022-09-01T03:55:08;1.58;;;1.23;;
29484;SDS011;16440;59.494;17.978;2022-09-01T03:57:45;3.12;;;1.08;;
29484;SDS011;16440;59.494;17.978;2022-09-01T04:00:18;1.60;;;1.20;;
29484;SDS011;16440;59.494;17.978;2022-09-01T04:02:57;1.85;;;1.20;;
29484;SDS011;16440;59.494;17.978;2022-09-01T04:05:27;1.37;;;1.00;;
29484;SDS011;16440;59.494;17.978;2022-09-01T04:08:08;2.33;;;1.30;;
29484;SDS011;16440;59.494;17.978;2022-09-01T04:10:49;2.05;;;1.20;;
29484;SDS011;16440;59.494;17.978;2022-09-01T04:13:23;2.72;;;1.40;;
29484;SDS011;16440;59.494;17.978;2022-09-01T04:15:54;4.45;;;1.27;;
29484;SDS011;16440;59.494;17.978;2022-09-01T04:18:23;2.80;;;1.17;;
29484;SDS011;16440;59.494;17.978;2022-09-01T04:20:54;2.65;;;1.05;;
29484;SDS011;16440;59.494;17.978;2022-09-01T04:23:25;1.37;;;1.08;;
29484;SDS011;16440;59.494;17.978;2022-09-01T04:28:43;4.10;;;1.12;;
29484;SDS011;16440;59.494;17.978;2022-09-01T04:31:23;2.70;;;1.40;;
29484;SDS011;16440;59.494;17.978;2022-09-01T04:33:58;1.70;;;1.17;;
29484;SDS011;16440;59.494;17.978;2022-09-01T04:36:37;3.45;;;1.55;;
29484;SDS011;16440;59.494;17.978;2022-09-01T04:39:15;1.67;;;1.05;;
29484;SDS011;16440;59.494;17.978;2022-09-01T04:42:05;3.83;;;1.10;;
29484;SDS011;16440;59.494;17.978;2022-09-01T04:47:51;3.08;;;1.50;;
29484;SDS011;16440;59.494;17.978;2022-09-01T04:50:27;1.45;;;1.20;;
29484;SDS011;16440;59.494;17.978;2022-09-01T04:53:07;2.83;;;1.10;;
29484;SDS011;16440;59.494;17.978;2022-09-01T04:55:44;4.12;;;1.50;;
29484;SDS011;16440;59.494;17.978;2022-09-01T04:58:21;1.52;;;1.23;;
29484;SDS011;16440;59.494;17.978;2022-09-01T05:06:53;2.62;;;1.20;;
29484;SDS011;16440;59.494;17.978;2022-09-01T05:11:51;1.60;;;1.12;;
29484;SDS011;16440;59.494;17.978;2022-09-01T05:14:35;2.60;;;1.10;;
29484;SDS011;16440;59.494;17.978;2022-09-01T05:17:19;2.85;;;1.40;;
29484;SDS011;16440;59.494;17.978;2022-09-01T05:19:54;1.30;;;1.00;;
29484;SDS011;16440;59.494;17.978;2022-09-01T05:22:22;3.87;;;1.40;;
29484;SDS011;16440;59.494;17.978;2022-09-01T05:27:25;3.83;;;1.25;;
29484;SDS011;16440;59.494;17.978;2022-09-01T05:32:26;1.90;;;1.05;;
29484;SDS011;16440;59.494;17.978;2022-09-01T05:37:33;2.35;;;1.10;;
29484;SDS011;16440;59.494;17.978;2022-09-01T05:45:08;2.37;;;1.20;;
29484;SDS011;16440;59.494;17.978;2022-09-01T05:50:37;3.40;;;1.10;;
29484;SDS011;16440;59.494;17.978;2022-09-01T05:53:20;1.20;;;1.00;;
29484;SDS011;16440;59.494;17.978;2022-09-01T05:58:26;2.95;;;1.20;;
29484;SDS011;16440;59.494;17.978;2022-09-01T06:06:35;1.85;;;1.20;;
29484;SDS011;16440;59.494;17.978;2022-09-01T06:12:22;1.25;;;0.80;;
29484;SDS011;16440;59.494;17.978;2022-09-01T06:15:06;2.28;;;0.93;;
29484;SDS011;16440;59.494;17.978;2022-09-01T06:17:48;1.55;;;0.95;;
29484;SDS011;16440;59.494;17.978;2022-09-01T06:20:22;1.98;;;1.00;;
29484;SDS011;16440;59.494;17.978;2022-09-01T06:22:53;1.75;;;0.90;;
29484;SDS011;16440;59.494;17.978;2022-09-01T06:25:23;1.45;;;0.95;;
29484;SDS011;16440;59.494;17.978;2022-09-01T06:27:57;1.12;;;0.90;;
29484;SDS011;16440;59.494;17.978;2022-09-01T06:30:32;1.75;;;0.90;;
29484;SDS011;16440;59.494;17.978;2022-09-01T06:36:10;1.00;;;0.80;;
29484;SDS011;16440;59.494;17.978;2022-09-01T06:41:40;1.08;;;0.75;;
29484;SDS011;16440;59.494;17.978;2022-09-01T06:47:26;6.45;;;0.80;;
29484;SDS011;16440;59.494;17.978;2022-09-01T06:49:56;3.72;;;0.98;;
29484;SDS011;16440;59.494;17.978;2022-09-01T06:55:35;0.70;;;0.65;;
29484;SDS011;16440;59.494;17.978;2022-09-01T06:58:30;0.98;;;0.80;;
29484;SDS011;16440;59.494;17.978;2022-09-01T07:01:14;1.20;;;0.68;;
29484;SDS011;16440;59.494;17.978;2022-09-01T07:09:40;0.68;;;0.60;;
29484;SDS011;16440;59.494;17.978;2022-09-01T07:15:36;1.58;;;0.70;;
29484;SDS011;16440;59.494;17.978;2022-09-01T07:18:42;1.42;;;0.80;;
29484;SDS011;16440;59.494;17.978;2022-09-01T07:21:32;2.87;;;0.90;;
29484;SDS011;16440;59.494;17.978;2022-09-01T07:27:30;1.35;;;0.73;;
29484;SDS011;16440;59.494;17.978;2022-09-01T09:16:56;0.50;;;0.50;;
29484;SDS011;16440;59.494;17.978;2022-09-01T09:22:06;2.62;;;0.80;;
29484;SDS011;16440;59.494;17.978;2022-09-01T09:25:06;1.85;;;0.60;;
29484;SDS011;16440;59.494;17.978;2022-09-01T09:32:55;0.43;;;0.43;;
29484;SDS011;16440;59.494;17.978;2022-09-01T09:35:26;0.62;;;0.50;;
29484;SDS011;16440;59.494;17.978;2022-09-01T09:38:30;2.15;;;0.60;;
29484;SDS011;16440;59.494;17.978;2022-09-01T09:41:08;0.95;;;0.60;;
29484;SDS011;16440;59.494;17.978;2022-09-01T09:43:45;10.77;;;0.85;;
29484;SDS011;16440;59.494;17.978;2022-09-01T09:46:33;1.60;;;0.60;;
29484;SDS011;16440;59.494;17.978;2022-09-01T09:49:32;1.95;;;0.60;;
29484;SDS011;16440;59.494;17.978;2022-09-01T09:52:14;0.55;;;0.52;;
29484;SDS011;16440;59.494;17.978;2022-09-01T10:00:27;1.92;;;0.70;;
29484;SDS011;16440;59.494;17.978;2022-09-01T10:03:20;0.50;;;0.50;;
29484;SDS011;16440;59.494;17.978;2022-09-01T10:06:40;1.27;;;0.68;;
29484;SDS011;16440;59.494;17.978;2022-09-01T10:09:32;0.88;;;0.57;;
29484;SDS011;16440;59.494;17.978;2022-09-01T10:12:35;0.90;;;0.65;;
29484;SDS011;16440;59.494;17.978;2022-09-01T10:15:23;0.98;;;0.57;;
29484;SDS011;16440;59.494;17.978;2022-09-01T10:18:05;0.70;;;0.50;;
29484;SDS011;16440;59.494;17.978;2022-09-01T10:26:36;1.55;;;0.50;;
29484;SDS011;16440;59.494;17.978;2022-09-01T10:29:12;0.75;;;0.50;;
29484;SDS011;16440;59.494;17.978;2022-09-01T10:32:19;2.33;;;0.50;;
29484;SDS011;16440;59.494;17.978;2022-09-01T10:35:27;1.20;;;0.50;;
29484;SDS011;16440;59.494;17.978;2022-09-01T11:13:42;2.25;;;0.47;;
29484;SDS011;16440;59.494;17.978;2022-09-01T11:19:37;0.40;;;0.40;;
29484;SDS011;16440;59.494;17.978;2022-09-01T12:24:26;1.20;;;0.50;;
29484;SDS011;16440;59.494;17.978;2022-09-01T12:27:16;2.50;;;0.50;;
29484;SDS011;16440;59.494;17.978;2022-09-01T12:29:50;3.50;;;0.55;;
29484;SDS011;16440;59.494;17.978;2022-09-01T12:37:47;1.08;;;0.50;;
29484;SDS011;16440;59.494;17.978;2022-09-01T12:40:31;0.55;;;0.50;;
29484;SDS011;16440;59.494;17.978;2022-09-01T12:46:44;0.70;;;0.57;;
29484;SDS011;16440;59.494;17.978;2022-09-01T12:49:25;1.23;;;0.50;;
29484;SDS011;16440;59.494;17.978;2022-09-01T12:52:11;1.87;;;0.45;;
29484;SDS011;16440;59.494;17.978;2022-09-01T12:57:24;0.75;;;0.40;;
29484;SDS011;16440;59.494;17.978;2022-09-01T13:00:27;0.40;;;0.40;;
29484;SDS011;16440;59.494;17.978;2022-09-01T13:05:49;2.17;;;0.40;;
29484;SDS011;16440;59.494;17.978;2022-09-01T13:08:24;0.45;;;0.45;;
29484;SDS011;16440;59.494;17.978;2022-09-01T13:13:52;0.73;;;0.50;;
29484;SDS011;16440;59.494;17.978;2022-09-01T13:16:23;0.98;;;0.50;;
29484;SDS011;16440;59.494;17.978;2022-09-01T13:19:02;0.50;;;0.50;;
29484;SDS011;16440;59.494;17.978;2022-09-01T13:21:34;1.55;;;0.55;;
29484;SDS011;16440;59.494;17.978;2022-09-01T13:24:10;0.52;;;0.50;;
29484;SDS011;16440;59.494;17.978;2022-09-01T13:32:11;1.95;;;0.50;;
29484;SDS011;16440;59.494;17.978;2022-09-01T13:34:53;0.95;;;0.50;;
29484;SDS011;16440;59.494;17.978;2022-09-01T13:37:27;0.60;;;0.60;;
29484;SDS011;16440;59.494;17.978;2022-09-01T13:40:17;0.93;;;0.50;;
29484;SDS011;16440;59.494;17.978;2022-09-01T13:48:04;3.33;;;0.73;;
29484;SDS011;16440;59.494;17.978;2022-09-01T13:50:33;2.97;;;0.95;;
29484;SDS011;16440;59.494;17.978;2022-09-01T13:53:02;1.02;;;0.50;;
29484;SDS011;16440;59.494;17.978;2022-09-01T13:55:37;1.83;;;0.60;;
29484;SDS011;16440;59.494;17.978;2022-09-01T14:17:20;0.55;;;0.52;;
29484;SDS011;16440;59.494;17.978;2022-09-01T14:20:07;0.50;;;0.50;;
29484;SDS011;16440;59.494;17.978;2022-09-01T14:22:42;0.60;;;0.50;;
29484;SDS011;16440;59.494;17.978;2022-09-01T14:27:51;0.50;;;0.47;;
29484;SDS011;16440;59.494;17.978;2022-09-01T14:30:21;1.60;;;0.52;;
29484;SDS011;16440;59.494;17.978;2022-09-01T14:43:35;0.37;;;0.37;;
29484;SDS011;16440;59.494;17.978;2022-09-01T14:46:14;2.75;;;0.60;;
29484;SDS011;16440;59.494;17.978;2022-09-01T14:54:10;0.50;;;0.50;;
29484;SDS011;16440;59.494;17.978;2022-09-01T14:56:55;0.77;;;0.60;;
29484;SDS011;16440;59.494;17.978;2022-09-01T14:59:36;1.33;;;0.60;;
29484;SDS011;16440;59.494;17.978;2022-09-01T15:02:18;0.40;;;0.40;;
29484;SDS011;16440;59.494;17.978;2022-09-01T15:04:52;0.85;;;0.62;;
29484;SDS011;16440;59.494;17.978;2022-09-01T15:07:20;0.50;;;0.50;;
29484;SDS011;16440;59.494;17.978;2022-09-01T15:09:48;0.85;;;0.60;;
29484;SDS011;16440;59.494;17.978;2022-09-01T15:12:44;0.52;;;0.52;;
29484;SDS011;16440;59.494;17.978;2022-09-01T15:15:17;0.50;;;0.47;;
29484;SDS011;16440;59.494;17.978;2022-09-01T15:17:54;0.95;;;0.60;;
29484;SDS011;16440;59.494;17.978;2022-09-01T15:20:29;1.20;;;0.75;;
29484;SDS011;16440;59.494;17.978;2022-09-01T15:23:12;1.08;;;0.50;;
29484;SDS011;16440;59.494;17.978;2022-09-01T15:25:45;1.15;;;0.60;;
29484;SDS011;16440;59.494;17.978;2022-09-01T15:28:19;1.42;;;0.60;;
29484;SDS011;16440;59.494;17.978;2022-09-01T15:33:34;2.17;;;0.60;;
29484;SDS011;16440;59.494;17.978;2022-09-01T15:36:03;3.70;;;0.60;;
29484;SDS011;16440;59.494;17.978;2022-09-01T15:38:34;1.25;;;0.70;;
29484;SDS011;16440;59.494;17.978;2022-09-01T15:41:05;1.87;;;0.60;;
29484;SDS011;16440;59.494;17.978;2022-09-01T15:43:36;2.47;;;0.50;;
29484;SDS011;16440;59.494;17.978;2022-09-01T15:46:06;0.50;;;0.50;;
29484;SDS011;16440;59.494;17.978;2022-09-01T15:48:42;0.50;;;0.50;;
29484;SDS011;16440;59.494;17.978;2022-09-01T16:35:43;1.45;;;0.68;;
29484;SDS011;16440;59.494;17.978;2022-09-01T16:38:37;4.45;;;0.75;;
29484;SDS011;16440;59.494;17.978;2022-09-01T16:41:12;1.27;;;0.60;;
29484;SDS011;16440;59.494;17.978;2022-09-01T16:46:29;1.30;;;0.60;;
29484;SDS011;16440;59.494;17.978;2022-09-01T16:49:04;0.70;;;0.55;;
29484;SDS011;16440;59.494;17.978;2022-09-01T16:51:44;0.60;;;0.50;;
29484;SDS011;16440;59.494;17.978;2022-09-01T16:54:23;3.10;;;0.70;;
29484;SDS011;16440;59.494;17.978;2022-09-01T16:59:30;1.15;;;0.70;;
29484;SDS011;16440;59.494;17.978;2022-09-01T17:02:12;0.77;;;0.50;;
29484;SDS011;16440;59.494;17.978;2022-09-01T17:04:51;2.55;;;0.70;;
29484;SDS011;16440;59.494;17.978;2022-09-01T17:07:28;1.73;;;0.50;;
29484;SDS011;16440;59.494;17.978;2022-09-01T17:10:09;1.02;;;0.55;;
29484;SDS011;16440;59.494;17.978;2022-09-01T17:12:47;0.70;;;0.62;;
29484;SDS011;16440;59.494;17.978;2022-09-01T17:15:28;4.90;;;0.73;;
29484;SDS011;16440;59.494;17.978;2022-09-01T17:18:11;1.30;;;0.73;;
29484;SDS011;16440;59.494;17.978;2022-09-01T17:20:42;0.77;;;0.60;;
29484;SDS011;16440;59.494;17.978;2022-09-01T17:23:16;2.03;;;0.70;;
29484;SDS011;16440;59.494;17.978;2022-09-01T17:25:54;3.50;;;0.70;;
29484;SDS011;16440;59.494;17.978;2022-09-01T17:28:28;2.33;;;0.70;;
29484;SDS011;16440;59.494;17.978;2022-09-01T17:31:12;0.88;;;0.55;;
29484;SDS011;16440;59.494;17.978;2022-09-01T17:33:51;1.48;;;0.60;;
29484;SDS011;16440;59.494;17.978;2022-09-01T17:36:32;1.33;;;0.68;;
29484;SDS011;16440;59.494;17.978;2022-09-01T17:39:07;1.02;;;0.80;;
29484;SDS011;16440;59.494;17.978;2022-09-01T17:41:45;1.65;;;0.70;;
29484;SDS011;16440;59.494;17.978;2022-09-01T17:44:19;0.88;;;0.82;;
29484;SDS011;16440;59.494;17.978;2022-09-01T17:47:00;1.48;;;0.70;;
29484;SDS011;16440;59.494;17.978;2022-09-01T17:49:38;2.17;;;0.70;;
29484;SDS011;16440;59.494;17.978;2022-09-01T17:52:16;1.10;;;0.70;;
29484;SDS011;16440;59.494;17.978;2022-09-01T17:54:55;1.25;;;0.80;;
29484;SDS011;16440;59.494;17.978;2022-09-01T17:57:25;1.73;;;0.90;;
29484;SDS011;16440;59.494;17.978;2022-09-01T18:00:04;1.42;;;0.70;;
29484;SDS011;16440;59.494;17.978;2022-09-01T18:02:47;0.80;;;0.70;;
29484;SDS011;16440;59.494;17.978;2022-09-01T18:05:23;0.80;;;0.60;;
29484;SDS011;16440;59.494;17.978;2022-09-01T18:10:40;0.90;;;0.70;;
29484;SDS011;16440;59.494;17.978;2022-09-01T18:13:15;1.45;;;1.20;;
29484;SDS011;16440;59.494;17.978;2022-09-01T18:15:54;1.52;;;0.70;;
29484;SDS011;16440;59.494;17.978;2022-09-01T18:18:31;1.98;;;0.80;;
29484;SDS011;16440;59.494;17.978;2022-09-01T18:21:07;3.40;;;0.90;;
29484;SDS011;16440;59.494;17.978;2022-09-01T18:23:41;2.92;;;0.70;;
29484;SDS011;16440;59.494;17.978;2022-09-01T18:26:18;0.90;;;0.75;;
29484;SDS011;16440;59.494;17.978;2022-09-01T18:28:51;2.40;;;0.77;;
29484;SDS011;16440;59.494;17.978;2022-09-01T18:34:27;1.17;;;0.80;;
29484;SDS011;16440;59.494;17.978;2022-09-01T18:37:18;2.00;;;0.90;;
29484;SDS011;16440;59.494;17.978;2022-09-01T18:39:56;1.62;;;0.60;;
29484;SDS011;16440;59.494;17.978;2022-09-01T18:42:32;3.58;;;0.95;;
29484;SDS011;16440;59.494;17.978;2022-09-01T18:45:11;2.53;;;0.90;;
29484;SDS011;16440;59.494;17.978;2022-09-01T18:47:52;1.85;;;0.80;;
29484;SDS011;16440;59.494;17.978;2022-09-01T18:50:28;1.35;;;0.70;;
29484;SDS011;16440;59.494;17.978;2022-09-01T18:53:07;0.80;;;0.75;;
29484;SDS011;16440;59.494;17.978;2022-09-01T18:55:45;2.78;;;0.90;;
29484;SDS011;16440;59.494;17.978;2022-09-01T18:58:22;3.50;;;0.90;;
29484;SDS011;16440;59.494;17.978;2022-09-01T19:03:40;2.92;;;1.20;;
29484;SDS011;16440;59.494;17.978;2022-09-01T19:06:27;3.08;;;0.90;;
29484;SDS011;16440;59.494;17.978;2022-09-01T19:09:06;3.20;;;0.90;;
29484;SDS011;16440;59.494;17.978;2022-09-01T19:11:46;2.30;;;0.88;;
29484;SDS011;16440;59.494;17.978;2022-09-01T19:14:26;2.72;;;0.90;;
29484;SDS011;16440;59.494;17.978;2022-09-01T19:17:09;1.80;;;0.70;;
29484;SDS011;16440;59.494;17.978;2022-09-01T19:19:51;0.75;;;0.75;;
29484;SDS011;16440;59.494;17.978;2022-09-01T19:22:38;1.12;;;0.90;;
29484;SDS011;16440;59.494;17.978;2022-09-01T19:25:20;2.87;;;0.80;;
29484;SDS011;16440;59.494;17.978;2022-09-01T19:28:04;4.10;;;1.00;;
29484;SDS011;16440;59.494;17.978;2022-09-01T19:30:41;2.40;;;0.85;;
29484;SDS011;16440;59.494;17.978;2022-09-01T19:33:26;0.80;;;0.65;;
29484;SDS011;16440;59.494;17.978;2022-09-01T19:38:29;2.37;;;1.02;;
29484;SDS011;16440;59.494;17.978;2022-09-01T19:41:03;7.55;;;0.95;;
29484;SDS011;16440;59.494;17.978;2022-09-01T19:43:38;2.10;;;0.77;;
29484;SDS011;16440;59.494;17.978;2022-09-01T19:48:45;5.32;;;1.00;;
29484;SDS011;16440;59.494;17.978;2022-09-01T19:51:23;1.40;;;0.90;;
29484;SDS011;16440;59.494;17.978;2022-09-01T19:56:33;1.45;;;0.90;;
29484;SDS011;16440;59.494;17.978;2022-09-01T19:59:11;2.42;;;0.70;;
29484;SDS011;16440;59.494;17.978;2022-09-01T20:01:48;1.95;;;1.52;;
29484;SDS011;16440;59.494;17.978;2022-09-01T20:04:24;1.33;;;0.80;;
29484;SDS011;16440;59.494;17.978;2022-09-01T20:06:59;1.50;;;0.90;;
29484;SDS011;16440;59.494;17.978;2022-09-01T20:09:36;4.62;;;0.90;;
29484;SDS011;16440;59.494;17.978;2022-09-01T20:12:14;0.85;;;0.80;;
29484;SDS011;16440;59.494;17.978;2022-09-01T20:17:36;3.78;;;0.80;;
29484;SDS011;16440;59.494;17.978;2022-09-01T20:20:10;2.85;;;1.00;;
29484;SDS011;16440;59.494;17.978;2022-09-01T20:22:42;1.12;;;0.90;;
29484;SDS011;16440;59.494;17.978;2022-09-01T20:28:12;1.85;;;0.90;;
29484;SDS011;16440;59.494;17.978;2022-09-01T20:30:51;2.17;;;0.90;;
29484;SDS011;16440;59.494;17.978;2022-09-01T20:33:27;2.15;;;1.10;;
29484;SDS011;16440;59.494;17.978;2022-09-01T20:36:02;3.10;;;0.90;;
29484;SDS011;16440;59.494;17.978;2022-09-01T20:38:45;2.30;;;1.00;;
29484;SDS011;16440;59.494;17.978;2022-09-01T20:41:26;1.15;;;0.73;;
29484;SDS011;16440;59.494;17.978;2022-09-01T20:44:06;2.92;;;1.00;;
29484;SDS011;16440;59.494;17.978;2022-09-01T20:46:41;0.88;;;0.88;;
29484;SDS011;16440;59.494;17.978;2022-09-01T20:49:09;2.45;;;0.80;;
29484;SDS011;16440;59.494;17.978;2022-09-01T20:51:40;4.15;;;1.02;;
29484;SDS011;16440;59.494;17.978;2022-09-01T20:54:18;1.67;;;0.90;;
29484;SDS011;16440;59.494;17.978;2022-09-01T20:56:59;2.67;;;0.82;;
29484;SDS011;16440;59.494;17.978;2022-09-01T20:59:48;2.58;;;1.00;;
29484;SDS011;16440;59.494;17.978;2022-09-01T21:02:23;0.80;;;0.80;;
29484;SDS011;16440;59.494;17.978;2022-09-01T21:05:07;4.28;;;1.00;;
29484;SDS011;16440;59.494;17.978;2022-09-01T21:07:59;0.70;;;0.70;;
29484;SDS011;16440;59.494;17.978;2022-09-01T21:10:44;3.35;;;0.90;;
29484;SDS011;16440;59.494;17.978;2022-09-01T21:13:22;1.92;;;0.95;;
29484;SDS011;16440;59.494;17.978;2022-09-01T21:16:02;2.03;;;1.30;;
29484;SDS011;16440;59.494;17.978;2022-09-01T21:18:41;1.30;;;0.98;;
29484;SDS011;16440;59.494;17.978;2022-09-01T21:21:20;1.33;;;0.93;;
29484;SDS011;16440;59.494;17.978;2022-09-01T21:23:56;1.80;;;1.08;;
29484;SDS011;16440;59.494;17.978;2022-09-01T21:26:25;2.90;;;1.00;;
29484;SDS011;16440;59.494;17.978;2022-09-01T21:28:54;1.52;;;0.95;;
29484;SDS011;16440;59.494;17.978;2022-09-01T21:31:23;1.35;;;0.98;;
29484;SDS011;16440;59.494;17.978;2022-09-01T21:33:51;1.12;;;0.90;;
29484;SDS011;16440;59.494;17.978;2022-09-01T21:36:20;1.85;;;1.00;;
29484;SDS011;16440;59.494;17.978;2022-09-01T21:38:48;2.35;;;1.12;;
29484;SDS011;16440;59.494;17.978;2022-09-01T21:41:16;2.28;;;1.00;;
29484;SDS011;16440;59.494;17.978;2022-09-01T21:43:49;1.17;;;0.95;;
29484;SDS011;16440;59.494;17.978;2022-09-01T21:46:17;1.80;;;1.05;;
29484;SDS011;16440;59.494;17.978;2022-09-01T21:48:46;3.10;;;1.00;;
29484;SDS011;16440;59.494;17.978;2022-09-01T21:51:18;1.35;;;1.00;;
29484;SDS011;16440;59.494;17.978;2022-09-01T21:53:47;2.20;;;1.20;;
29484;SDS011;16440;59.494;17.978;2022-09-01T21:56:18;1.97;;;1.17;;
29484;SDS011;16440;59.494;17.978;2022-09-01T21:58:50;2.42;;;0.82;;
29484;SDS011;16440;59.494;17.978;2022-09-01T22:01:23;1.30;;;1.10;;
29484;SDS011;16440;59.494;17.978;2022-09-01T22:06:23;1.15;;;1.00;;
29484;SDS011;16440;59.494;17.978;2022-09-01T22:08:52;1.30;;;0.90;;
29484;SDS011;16440;59.494;17.978;2022-09-01T22:11:21;1.77;;;1.05;;
29484;SDS011;16440;59.494;17.978;2022-09-01T22:13:54;1.45;;;1.05;;
29484;SDS011;16440;59.494;17.978;2022-09-01T22:16:23;2.92;;;1.00;;
29484;SDS011;16440;59.494;17.978;2022-09-01T22:18:52;3.17;;;1.05;;
29484;SDS011;16440;59.494;17.978;2022-09-01T22:21:21;2.97;;;0.90;;
29484;SDS011;16440;59.494;17.978;2022-09-01T22:23:49;6.93;;;1.10;;
29484;SDS011;16440;59.494;17.978;2022-09-01T22:26:18;3.33;;;1.23;;
29484;SDS011;16440;59.494;17.978;2022-09-01T22:28:52;1.40;;;1.10;;
29484;SDS011;16440;59.494;17.978;2022-09-01T22:31:22;1.20;;;1.10;;
29484;SDS011;16440;59.494;17.978;2022-09-01T22:33:51;1.52;;;0.90;;
29484;SDS011;16440;59.494;17.978;2022-09-01T22:36:21;1.00;;;0.88;;
29484;SDS011;16440;59.494;17.978;2022-09-01T22:38:52;2.12;;;1.05;;
29484;SDS011;16440;59.494;17.978;2022-09-01T22:41:22;1.83;;;1.15;;
29484;SDS011;16440;59.494;17.978;2022-09-01T22:46:26;4.32;;;1.20;;
29484;SDS011;16440;59.494;17.978;2022-09-01T22:48:56;1.98;;;1.00;;
29484;SDS011;16440;59.494;17.978;2022-09-01T22:51:25;2.47;;;1.23;;
29484;SDS011;16440;59.494;17.978;2022-09-01T22:53:57;2.00;;;1.00;;
29484;SDS011;16440;59.494;17.978;2022-09-01T22:56:25;1.10;;;1.00;;
29484;SDS011;16440;59.494;17.978;2022-09-01T22:58:55;2.28;;;1.05;;
29484;SDS011;16440;59.494;17.978;2022-09-01T23:01:29;2.25;;;1.00;;
29484;SDS011;16440;59.494;17.978;2022-09-01T23:06:25;2.42;;;1.00;;
29484;SDS011;16440;59.494;17.978;2022-09-01T23:08:58;4.20;;;1.15;;
29484;SDS011;16440;59.494;17.978;2022-09-01T23:11:28;0.93;;;0.80;;
29484;SDS011;16440;59.494;17.978;2022-09-01T23:13:57;2.65;;;0.98;;
29484;SDS011;16440;59.494;17.978;2022-09-01T23:16:24;2.17;;;1.00;;
29484;SDS011;16440;59.494;17.978;2022-09-01T23:18:53;2.40;;;1.00;;
29484;SDS011;16440;59.494;17.978;2022-09-01T23:21:23;1.33;;;0.93;;
29484;SDS011;16440;59.494;17.978;2022-09-01T23:23:53;1.33;;;0.95;;
29484;SDS011;16440;59.494;17.978;2022-09-01T23:26:22;1.10;;;0.90;;
29484;SDS011;16440;59.494;17.978;2022-09-01T23:28:56;1.50;;;0.93;;
29484;SDS011;16440;59.494;17.978;2022-09-01T23:31:24;1.90;;;0.80;;
29484;SDS011;16440;59.494;17.978;2022-09-01T23:33:55;1.17;;;0.90;;
29484;SDS011;16440;59.494;17.978;2022-09-01T23:36:25;2.28;;;0.90;;
29484;SDS011;16440;59.494;17.978;2022-09-01T23:38:54;1.62;;;0.73;;
29484;SDS011;16440;59.494;17.978;2022-09-01T23:41:23;3.50;;;0.77;;
29484;SDS011;16440;59.494;17.978;2022-09-01T23:43:57;2.33;;;1.00;;
29484;SDS011;16440;59.494;17.978;2022-09-01T23:46:24;1.25;;;0.95;;
29484;SDS011;16440;59.494;17.978;2022-09-01T23:48:57;2.17;;;0.90;;
29484;SDS011;16440;59.494;17.978;2022-09-01T23:51:23;1.55;;;0.90;;
29484;SDS011;16440;59.494;17.978;2022-09-01T23:53:52;1.08;;;0.80;;
29484;SDS011;16440;59.494;17.978;2022-09-01T23:56:24;1.45;;;0.70;;
29484;SDS011;16440;59.494;17.978;2022-09-01T23:58:53;1.08;;;0.80;;
